createdAt,value
2022-12-13T00:00:58.482Z,88.97
2022-12-13T00:03:25.769Z,79.67
2022-12-13T00:05:54.592Z,90.50
2022-12-13T00:08:21.990Z,81.10
2022-12-13T00:10:59.106Z,76.70
2022-12-13T00:13:28.512Z,79.00
2022-12-13T00:16:00.169Z,85.97
2022-12-13T00:18:27.981Z,87.63
2022-12-13T00:20:55.314Z,84.93
2022-12-13T00:23:23.395Z,78.20
2022-12-13T00:25:50.768Z,74.20
2022-12-13T00:28:18.440Z,84.63
2022-12-13T00:30:45.818Z,72.17
2022-12-13T00:33:13.128Z,81.93
2022-12-13T00:35:41.570Z,83.70
2022-12-13T00:38:10.452Z,68.33
2022-12-13T00:40:37.750Z,79.00
2022-12-13T00:43:05.038Z,62.57
2022-12-13T00:45:33.401Z,73.60
2022-12-13T00:48:00.727Z,78.27
2022-12-13T00:50:28.095Z,70.97
2022-12-13T00:52:55.409Z,81.13
2022-12-13T00:55:22.728Z,87.40
2022-12-13T00:57:50.082Z,65.87
2022-12-13T01:00:17.492Z,71.30
2022-12-13T01:02:44.895Z,70.13
2022-12-13T01:05:12.716Z,63.73
2022-12-13T01:07:44.341Z,74.20
2022-12-13T01:10:12.142Z,70.80
2022-12-13T01:12:40.030Z,69.47
2022-12-13T01:15:07.923Z,75.60
2022-12-13T01:17:35.745Z,78.00
2022-12-13T01:20:03.670Z,71.33
2022-12-13T01:22:31.237Z,59.33
2022-12-13T01:24:58.551Z,64.87
2022-12-13T01:27:25.839Z,66.00
2022-12-13T01:29:53.116Z,66.07
2022-12-13T01:32:20.400Z,59.93
2022-12-13T01:34:47.798Z,56.37
2022-12-13T01:37:17.479Z,62.90
2022-12-13T01:39:44.812Z,73.53
2022-12-13T01:42:14.711Z,63.03
2022-12-13T01:44:57.340Z,64.37
2022-12-13T01:47:26.164Z,63.70
2022-12-13T01:49:55.492Z,62.27
2022-12-13T01:52:24.060Z,62.73
2022-12-13T01:54:53.122Z,69.80
2022-12-13T01:57:22.107Z,65.20
2022-12-13T01:59:50.350Z,66.27
2022-12-13T02:02:17.681Z,63.77
2022-12-13T02:04:45.037Z,65.77
2022-12-13T02:07:22.935Z,76.63
2022-12-13T02:09:57.233Z,59.43
2022-12-13T02:12:30.234Z,66.57
2022-12-13T02:15:01.750Z,66.77
2022-12-13T02:17:47.445Z,72.87
2022-12-13T02:20:21.500Z,62.70
2022-12-13T02:23:04.630Z,68.17
2022-12-13T02:25:50.692Z,67.30
2022-12-13T02:28:36.178Z,67.07
2022-12-13T02:31:15.629Z,73.40
2022-12-13T02:33:49.194Z,62.00
2022-12-13T02:36:35.986Z,66.20
2022-12-13T02:39:12.306Z,72.47
2022-12-13T02:41:49.890Z,67.47
2022-12-13T02:44:22.159Z,68.73
2022-12-13T02:47:01.952Z,76.77
2022-12-13T02:49:31.800Z,70.37
2022-12-13T02:51:59.996Z,68.63
2022-12-13T02:54:27.325Z,74.00
2022-12-13T02:56:55.791Z,85.07
2022-12-13T02:59:24.853Z,68.60
2022-12-13T03:01:54.954Z,73.97
2022-12-13T03:05:14.714Z,77.00
2022-12-13T03:08:01.682Z,72.77
2022-12-13T03:10:33.239Z,74.53
2022-12-13T03:13:22.263Z,76.73
2022-12-13T03:16:00.735Z,67.50
2022-12-13T03:18:28.862Z,68.17
2022-12-13T03:21:03.643Z,74.77
2022-12-13T03:23:31.472Z,68.87
2022-12-13T03:26:22.031Z,75.37
2022-12-13T03:28:49.326Z,81.33
2022-12-13T03:31:17.058Z,68.20
2022-12-13T03:33:44.438Z,69.70
2022-12-13T03:36:12.387Z,65.93
2022-12-13T03:38:40.619Z,75.57
2022-12-13T03:41:10.118Z,72.87
2022-12-13T03:43:37.695Z,66.70
2022-12-13T03:46:05.053Z,71.97
2022-12-13T03:48:32.361Z,80.70
2022-12-13T03:51:00.082Z,69.37
2022-12-13T03:53:33.132Z,80.90
2022-12-13T03:56:01.931Z,83.37
2022-12-13T03:58:35.321Z,72.30
2022-12-13T04:01:04.879Z,57.40
2022-12-13T04:03:32.140Z,75.83
2022-12-13T04:05:59.412Z,68.67
2022-12-13T04:08:26.754Z,66.80
2022-12-13T04:10:54.134Z,75.83
2022-12-13T04:13:33.666Z,75.67
2022-12-13T04:16:01.654Z,68.30
2022-12-13T04:18:29.073Z,68.83
2022-12-13T04:20:57.393Z,69.20
2022-12-13T04:23:24.922Z,75.13
2022-12-13T04:25:52.355Z,57.30
2022-12-13T04:28:22.526Z,65.83
2022-12-13T04:30:53.505Z,73.10
2022-12-13T04:33:22.231Z,68.70
2022-12-13T04:35:49.826Z,74.37
2022-12-13T04:38:17.253Z,64.23
2022-12-13T04:40:44.615Z,73.13
2022-12-13T04:43:11.890Z,80.40
2022-12-13T04:45:39.415Z,62.70
2022-12-13T04:48:06.869Z,68.03
2022-12-13T04:50:34.440Z,71.80
2022-12-13T04:53:01.787Z,70.63
2022-12-13T04:55:29.067Z,73.63
2022-12-13T04:57:56.337Z,68.83
2022-12-13T05:00:23.635Z,67.13
2022-12-13T05:02:51.082Z,67.13
2022-12-13T05:05:18.898Z,65.27
2022-12-13T05:07:46.558Z,73.70
2022-12-13T05:10:35.849Z,62.97
2022-12-13T05:13:01.571Z,77.63
2022-12-13T05:15:30.130Z,77.10
2022-12-13T05:18:10.288Z,65.60
2022-12-13T05:20:39.162Z,63.50
2022-12-13T05:23:06.663Z,73.80
2022-12-13T05:25:37.324Z,75.10
2022-12-13T05:29:22.752Z,72.40
2022-12-13T05:31:51.067Z,63.67
2022-12-13T05:34:19.719Z,76.10
2022-12-13T05:36:47.195Z,81.87
2022-12-13T05:39:28.000Z,69.33
2022-12-13T05:42:01.972Z,93.30
2022-12-13T05:44:30.854Z,74.60
2022-12-13T05:46:58.360Z,71.90
2022-12-13T05:49:29.808Z,61.57
2022-12-13T05:51:57.442Z,70.03
2022-12-13T05:54:24.875Z,71.93
2022-12-13T05:56:52.256Z,61.67
2022-12-13T05:59:19.813Z,71.97
2022-12-13T06:01:47.225Z,78.33
2022-12-13T06:04:22.798Z,76.63
2022-12-13T06:06:51.586Z,72.83
2022-12-13T06:09:19.728Z,81.93
2022-12-13T06:11:47.177Z,72.13
2022-12-13T06:14:22.828Z,77.00
2022-12-13T06:16:51.613Z,68.60
2022-12-13T06:19:19.334Z,61.50
2022-12-13T06:21:46.906Z,84.40
2022-12-13T06:24:15.897Z,70.10
2022-12-13T06:26:45.283Z,72.07
2022-12-13T06:29:24.040Z,54.53
2022-12-13T06:32:01.271Z,68.27
2022-12-13T06:34:31.372Z,77.07
2022-12-13T06:36:58.857Z,68.93
2022-12-13T06:39:32.965Z,70.73
2022-12-13T06:42:01.816Z,69.77
2022-12-13T06:44:29.192Z,72.63
2022-12-13T06:47:11.880Z,80.47
2022-12-13T06:49:41.658Z,66.57
2022-12-13T06:52:12.593Z,76.53
2022-12-13T06:54:40.285Z,66.37
2022-12-13T06:57:08.093Z,67.67
2022-12-13T06:59:35.724Z,68.77
2022-12-13T07:02:04.021Z,74.03
2022-12-13T07:04:32.444Z,58.70
2022-12-13T07:07:01.416Z,77.53
2022-12-13T07:09:34.456Z,64.67
2022-12-13T07:12:02.133Z,65.10
2022-12-13T07:14:32.544Z,61.53
2022-12-13T07:17:08.692Z,90.53
2022-12-13T07:19:36.725Z,63.53
2022-12-13T07:22:05.839Z,69.13
2022-12-13T07:24:34.712Z,64.97
2022-12-13T07:27:02.533Z,71.83
2022-12-13T07:29:29.978Z,66.20
2022-12-13T07:32:01.834Z,71.47
2022-12-13T07:34:30.107Z,71.40
2022-12-13T07:36:57.573Z,73.20
2022-12-13T07:39:27.983Z,58.43
2022-12-13T07:41:56.328Z,61.77
2022-12-13T07:44:24.466Z,68.40
2022-12-13T07:46:51.965Z,71.70
2022-12-13T07:49:19.389Z,67.03
2022-12-13T07:51:48.038Z,68.37
2022-12-13T07:54:15.665Z,83.20
2022-12-13T07:56:43.088Z,71.00
2022-12-13T07:59:10.924Z,63.67
2022-12-13T08:01:38.536Z,69.50
2022-12-13T08:04:06.575Z,71.83
2022-12-13T08:06:37.968Z,72.33
2022-12-13T08:09:06.046Z,81.17
2022-12-13T08:11:33.646Z,77.23
2022-12-13T08:14:01.020Z,90.50
2022-12-13T08:16:30.466Z,67.00
2022-12-13T08:19:01.597Z,81.10
2022-12-13T08:24:21.211Z,88.07
2022-12-13T08:26:48.486Z,63.60
2022-12-13T08:29:23.187Z,97.70
2022-12-13T08:32:02.256Z,80.93
2022-12-13T08:34:30.051Z,152.40
2022-12-13T08:37:02.126Z,82.70
2022-12-13T08:39:34.182Z,76.20
2022-12-13T08:42:15.753Z,79.43
2022-12-13T08:44:45.130Z,93.97
2022-12-13T08:47:12.543Z,78.80
2022-12-13T08:49:51.178Z,90.03
2022-12-13T08:52:19.459Z,111.23
2022-12-13T08:54:46.787Z,88.17
2022-12-13T08:57:14.061Z,92.00
2022-12-13T08:59:41.415Z,94.13
2022-12-13T09:02:12.519Z,162.82
2022-12-13T09:04:39.913Z,106.03
2022-12-13T09:07:07.431Z,79.10
2022-12-13T09:09:35.277Z,91.07
2022-12-13T09:12:10.994Z,91.03
2022-12-13T09:14:52.313Z,88.83
2022-12-13T09:17:30.501Z,90.43
2022-12-13T09:20:09.769Z,88.90
2022-12-13T09:22:54.383Z,85.90
2022-12-13T09:25:37.475Z,85.53
2022-12-13T09:28:09.384Z,95.13
2022-12-13T09:30:37.245Z,95.70
2022-12-13T09:33:18.186Z,87.60
2022-12-13T09:35:52.580Z,88.87
2022-12-13T09:38:20.124Z,83.07
2022-12-13T09:40:49.166Z,91.57
2022-12-13T09:43:31.329Z,88.47
2022-12-13T09:46:03.867Z,84.13
2022-12-13T09:48:35.008Z,81.63
2022-12-13T09:51:26.112Z,90.70
2022-12-13T09:53:51.760Z,86.80
2022-12-13T09:56:23.749Z,75.80
2022-12-13T09:58:51.970Z,80.90
2022-12-13T10:01:23.051Z,89.37
2022-12-13T10:03:55.290Z,70.37
2022-12-13T10:06:25.061Z,93.23
2022-12-13T10:08:57.883Z,87.00
2022-12-13T10:11:32.436Z,83.70
2022-12-13T10:14:03.110Z,88.60
2022-12-13T10:16:43.754Z,86.23
2022-12-13T10:19:30.246Z,85.90
2022-12-13T10:22:01.294Z,85.83
2022-12-13T10:24:49.983Z,89.47
2022-12-13T10:27:18.413Z,87.17
2022-12-13T10:30:05.655Z,86.70
2022-12-13T10:32:37.475Z,86.53
2022-12-13T10:35:25.639Z,90.63
2022-12-13T10:37:53.235Z,83.83
2022-12-13T10:40:32.049Z,81.97
2022-12-13T10:43:07.291Z,87.33
2022-12-13T10:45:34.747Z,81.33
2022-12-13T10:48:04.351Z,90.30
2022-12-13T10:50:32.603Z,93.83
2022-12-13T10:53:01.003Z,88.17
2022-12-13T10:55:30.814Z,79.73
2022-12-13T10:58:00.038Z,94.63
2022-12-13T11:00:37.602Z,86.50
2022-12-13T11:03:05.562Z,95.10
2022-12-13T11:05:34.398Z,91.23
2022-12-13T11:08:15.211Z,83.63
2022-12-13T11:10:42.659Z,79.60
2022-12-13T11:13:22.961Z,81.67
2022-12-13T11:15:55.200Z,93.67
2022-12-13T11:18:24.340Z,88.30
2022-12-13T11:20:57.305Z,87.20
2022-12-13T11:23:33.572Z,92.07
2022-12-13T11:26:03.276Z,84.00
2022-12-13T11:28:36.599Z,99.00
2022-12-13T11:31:22.634Z,88.63
2022-12-13T11:33:49.944Z,92.00
2022-12-13T11:36:32.870Z,82.37
2022-12-13T11:39:03.274Z,101.60
2022-12-13T11:41:33.261Z,83.10
2022-12-13T11:44:15.940Z,84.50
2022-12-13T11:46:54.963Z,83.03
2022-12-13T11:49:30.570Z,92.50
2022-12-13T11:52:01.341Z,85.83
2022-12-13T11:54:38.639Z,91.40
2022-12-13T11:57:12.898Z,85.10
2022-12-13T11:59:43.237Z,78.67
2022-12-13T12:02:29.601Z,86.40
2022-12-13T12:05:00.732Z,90.30
2022-12-13T12:07:33.582Z,90.00
2022-12-13T12:10:16.297Z,81.87
2022-12-13T12:12:45.694Z,86.23
2022-12-13T12:15:34.096Z,85.33
2022-12-13T12:18:16.498Z,85.50
2022-12-13T12:20:55.987Z,92.73
2022-12-13T12:23:30.423Z,96.50
2022-12-13T12:26:08.431Z,76.37
2022-12-13T12:29:01.259Z,82.23
2022-12-13T12:31:33.712Z,74.87
2022-12-13T12:34:19.572Z,88.00
2022-12-13T12:36:58.247Z,86.40
2022-12-13T12:39:39.348Z,86.60
2022-12-13T12:42:09.577Z,81.13
2022-12-13T12:45:00.454Z,82.17
2022-12-13T12:47:57.516Z,73.60
2022-12-13T12:50:24.243Z,87.67
2022-12-13T12:53:08.154Z,89.47
2022-12-13T12:55:38.187Z,84.30
2022-12-13T12:58:15.463Z,84.00
2022-12-13T13:00:50.760Z,83.20
2022-12-13T13:03:27.616Z,78.23
2022-12-13T13:06:01.890Z,82.57
2022-12-13T13:08:34.111Z,82.57
2022-12-13T13:11:02.354Z,81.33
2022-12-13T13:13:46.070Z,79.87
2022-12-13T13:16:43.155Z,82.63
2022-12-13T13:19:13.253Z,82.13
2022-12-13T13:21:40.578Z,83.97
2022-12-13T13:24:07.849Z,71.63
2022-12-13T13:26:45.683Z,76.20
2022-12-13T13:29:27.694Z,74.83
2022-12-13T13:32:01.943Z,83.63
2022-12-13T13:34:38.486Z,86.07
2022-12-13T13:37:26.190Z,78.07
2022-12-13T13:39:54.034Z,84.57
2022-12-13T13:42:22.772Z,81.20
2022-12-13T13:44:50.201Z,73.33
2022-12-13T13:47:17.509Z,85.43
2022-12-13T13:50:02.260Z,87.60
2022-12-13T13:52:33.096Z,85.47
2022-12-13T13:55:23.575Z,83.53
2022-12-13T13:58:10.922Z,80.57
2022-12-13T14:00:57.567Z,84.47
2022-12-13T14:03:33.857Z,80.73
2022-12-13T14:06:05.241Z,95.17
2022-12-13T14:08:35.767Z,81.43
2022-12-13T14:11:22.190Z,89.97
2022-12-13T14:14:21.703Z,77.73
2022-12-13T14:17:02.505Z,81.13
2022-12-13T14:19:32.926Z,88.80
2022-12-13T14:22:17.858Z,76.20
2022-12-13T14:24:51.265Z,87.40
2022-12-13T14:27:21.988Z,76.93
2022-12-13T14:29:57.856Z,92.17
2022-12-13T14:32:30.807Z,90.80
2022-12-13T14:34:58.655Z,81.23
2022-12-13T14:37:28.080Z,87.90
2022-12-13T14:39:55.516Z,82.70
2022-12-13T14:42:24.860Z,98.03
2022-12-13T14:44:52.452Z,81.83
2022-12-13T14:47:20.519Z,89.10
2022-12-13T14:49:50.719Z,91.03
2022-12-13T14:52:26.364Z,89.17
2022-12-13T14:54:59.570Z,91.73
2022-12-13T14:57:28.445Z,89.70
2022-12-13T14:59:57.005Z,83.97
2022-12-13T15:02:30.713Z,78.57
2022-12-13T15:05:00.414Z,75.53
2022-12-13T15:07:38.424Z,88.23
2022-12-13T15:10:28.610Z,73.13
2022-12-13T15:12:56.106Z,86.20
2022-12-13T15:15:31.596Z,94.70
2022-12-13T15:18:11.198Z,88.90
2022-12-13T15:20:42.290Z,105.67
2022-12-13T15:23:22.180Z,92.53
2022-12-13T15:26:08.670Z,85.27
2022-12-13T15:28:37.819Z,93.47
2022-12-13T15:31:05.921Z,83.87
2022-12-13T15:33:38.093Z,89.70
2022-12-13T15:36:15.996Z,85.23
2022-12-13T15:39:03.536Z,98.00
2022-12-13T15:41:36.772Z,94.63
2022-12-13T15:44:07.981Z,97.03
2022-12-13T15:46:37.965Z,82.73
2022-12-13T15:49:06.865Z,82.23
2022-12-13T15:51:34.144Z,83.00
2022-12-13T15:54:06.620Z,89.33
2022-12-13T15:56:52.801Z,90.47
2022-12-13T15:59:27.779Z,100.87
2022-12-13T16:01:58.441Z,99.77
2022-12-13T16:04:28.419Z,94.37
2022-12-13T16:06:56.165Z,89.67
2022-12-13T16:09:25.321Z,97.40
2022-12-13T16:11:52.587Z,98.67
2022-12-13T16:14:28.479Z,93.23
2022-12-13T16:16:56.184Z,95.40
2022-12-13T16:19:23.812Z,93.53
2022-12-13T16:21:51.334Z,98.27
2022-12-13T16:24:18.806Z,98.80
2022-12-13T16:26:47.219Z,96.57
2022-12-13T16:29:16.400Z,91.47
2022-12-13T16:31:44.175Z,100.73
2022-12-13T16:34:11.630Z,92.73
2022-12-13T16:36:39.354Z,88.63
2022-12-13T16:39:07.755Z,111.22
2022-12-13T16:41:38.731Z,112.73
2022-12-13T16:44:08.200Z,99.60
2022-12-13T16:47:13.709Z,94.57
2022-12-13T16:49:25.396Z,90.80
2022-12-13T16:51:52.691Z,98.90
2022-12-13T16:54:20.765Z,111.23
2022-12-13T16:56:48.806Z,104.70
2022-12-13T16:59:17.042Z,106.17
2022-12-13T17:01:45.392Z,103.40
2022-12-13T17:04:19.245Z,102.37
2022-12-13T17:06:47.826Z,101.63
2022-12-13T17:09:15.113Z,105.90
2022-12-13T17:11:42.637Z,98.47
2022-12-13T17:14:10.291Z,108.67
2022-12-13T17:16:37.658Z,122.87
2022-12-13T17:19:05.479Z,113.47
2022-12-13T17:21:32.804Z,110.90
2022-12-13T17:24:01.400Z,110.97
2022-12-13T17:26:29.366Z,109.17
2022-12-13T17:28:56.674Z,101.63
2022-12-13T17:31:24.040Z,105.30
2022-12-13T17:33:52.376Z,107.47
2022-12-13T17:36:19.660Z,97.77
2022-12-13T17:38:49.397Z,104.53
2022-12-13T17:41:18.282Z,106.90
2022-12-13T17:43:45.843Z,102.93
2022-12-13T17:46:17.556Z,108.13
2022-12-13T17:48:48.537Z,101.97
2022-12-13T17:51:15.906Z,93.37
2022-12-13T17:53:44.272Z,98.53
2022-12-13T17:56:12.966Z,104.57
2022-12-13T17:58:40.482Z,108.07
2022-12-13T18:01:15.610Z,99.70
2022-12-13T18:03:43.606Z,88.63
2022-12-13T18:06:11.144Z,92.77
2022-12-13T18:08:39.365Z,112.37
2022-12-13T18:13:55.423Z,101.07
2022-12-13T18:16:23.937Z,98.10
2022-12-13T18:18:55.468Z,94.80
2022-12-13T18:21:23.552Z,92.90
2022-12-13T18:23:55.656Z,113.93
2022-12-13T18:26:23.959Z,102.20
2022-12-13T18:28:51.567Z,109.40
2022-12-13T18:31:20.830Z,113.23
2022-12-13T18:33:49.463Z,97.73
2022-12-13T18:36:17.311Z,110.73
2022-12-13T18:38:44.731Z,101.57
2022-12-13T18:41:14.892Z,102.27
2022-12-13T18:43:42.894Z,91.57
2022-12-13T18:46:10.829Z,99.43
2022-12-13T18:48:38.321Z,96.10
2022-12-13T18:51:07.671Z,89.07
2022-12-13T18:53:35.828Z,92.33
2022-12-13T18:56:18.417Z,90.13
2022-12-13T18:58:48.332Z,88.23
2022-12-13T19:01:16.445Z,94.30
2022-12-13T19:03:46.668Z,83.60
2022-12-13T19:06:18.396Z,112.63
2022-12-13T19:08:49.612Z,94.77
2022-12-13T19:11:18.017Z,97.07
2022-12-13T19:13:45.520Z,95.90
2022-12-13T19:16:15.313Z,97.13
2022-12-13T19:18:42.719Z,91.23
2022-12-13T19:21:11.203Z,102.07
2022-12-13T19:23:40.768Z,100.50
2022-12-13T19:26:09.287Z,96.80
2022-12-13T19:28:36.966Z,89.97
2022-12-13T19:31:07.596Z,103.97
2022-12-13T19:33:35.626Z,85.07
2022-12-13T19:36:03.671Z,76.97
2022-12-13T19:38:36.205Z,86.07
2022-12-13T19:41:11.444Z,113.70
2022-12-13T19:43:38.861Z,90.33
2022-12-13T19:46:07.325Z,85.07
2022-12-13T19:48:37.651Z,91.63
2022-12-13T19:51:06.310Z,81.47
2022-12-13T19:53:33.985Z,97.23
2022-12-13T19:56:02.495Z,85.73
2022-12-13T19:58:32.511Z,76.50
2022-12-13T20:01:03.555Z,84.10
2022-12-13T20:03:34.969Z,76.47
2022-12-13T20:06:02.727Z,88.43
2022-12-13T20:08:30.521Z,92.17
2022-12-13T20:11:01.462Z,91.30
2022-12-13T20:13:29.289Z,90.93
2022-12-13T20:15:59.540Z,91.63
2022-12-13T20:18:27.173Z,85.47
2022-12-13T20:21:11.786Z,84.33
2022-12-13T20:23:39.696Z,85.40
2022-12-13T20:26:08.488Z,73.27
2022-12-13T20:28:35.814Z,73.17
2022-12-13T20:31:10.893Z,83.70
2022-12-13T20:33:40.540Z,82.77
2022-12-13T20:36:27.214Z,74.17
2022-12-13T20:38:56.434Z,76.77
2022-12-13T20:41:24.892Z,80.73
2022-12-13T20:43:55.110Z,73.30
2022-12-13T20:46:23.005Z,98.13
2022-12-13T20:48:50.616Z,70.63
2022-12-13T20:51:19.203Z,82.63
2022-12-13T20:53:47.538Z,78.57
2022-12-13T20:56:18.739Z,91.43
2022-12-13T20:58:46.551Z,85.57
2022-12-13T21:01:21.157Z,79.87
2022-12-13T21:03:48.560Z,97.37
2022-12-13T21:06:16.170Z,82.10
2022-12-13T21:08:52.558Z,91.63
2022-12-13T21:11:30.048Z,92.10
2022-12-13T21:14:05.378Z,85.60
2022-12-13T21:16:36.991Z,80.63
2022-12-13T21:19:04.950Z,94.50
2022-12-13T21:21:32.577Z,93.43
2022-12-13T21:24:00.546Z,94.70
2022-12-13T21:26:33.279Z,95.70
2022-12-13T21:29:05.043Z,101.37
2022-12-13T21:31:32.655Z,93.63
2022-12-13T21:34:00.585Z,94.10
2022-12-13T21:36:32.213Z,88.83
2022-12-13T21:39:00.772Z,93.43
2022-12-13T21:41:28.506Z,84.63
2022-12-13T21:43:56.130Z,79.47
2022-12-13T21:46:31.270Z,81.73
2022-12-13T21:49:12.624Z,95.30
2022-12-13T21:51:44.609Z,97.47
2022-12-13T21:54:14.806Z,89.83
2022-12-13T21:57:00.701Z,80.63
2022-12-13T21:59:28.704Z,75.27
2022-12-13T22:02:13.228Z,77.30
2022-12-13T22:04:43.669Z,75.43
2022-12-13T22:07:12.162Z,72.10
2022-12-13T22:09:39.426Z,76.60
2022-12-13T22:12:08.210Z,66.63
2022-12-13T22:14:35.541Z,70.63
2022-12-13T22:17:02.898Z,76.57
2022-12-13T22:19:30.215Z,79.67
2022-12-13T22:21:57.440Z,79.80
2022-12-13T22:24:24.727Z,75.67
2022-12-13T22:26:51.976Z,84.80
2022-12-13T22:29:19.253Z,82.97
2022-12-13T22:31:48.852Z,69.83
2022-12-13T22:34:16.796Z,76.80
2022-12-13T22:36:44.655Z,70.90
2022-12-13T22:39:18.907Z,85.97
2022-12-13T22:41:53.911Z,66.57
2022-12-13T22:44:21.665Z,70.33
2022-12-13T22:46:51.201Z,71.37
2022-12-13T22:49:27.596Z,75.90
2022-12-13T22:51:54.987Z,79.40
2022-12-13T22:54:22.257Z,78.33
2022-12-13T22:56:50.438Z,80.30
2022-12-13T22:59:18.130Z,64.53
2022-12-13T23:01:47.458Z,75.23
2022-12-13T23:04:18.407Z,73.83
2022-12-13T23:06:45.872Z,69.80
2022-12-13T23:09:13.937Z,82.00
2022-12-13T23:12:00.382Z,76.43
2022-12-13T23:14:29.477Z,68.57
2022-12-13T23:16:57.046Z,64.37
2022-12-13T23:19:48.860Z,70.50
2022-12-13T23:22:12.116Z,73.40
2022-12-13T23:24:39.373Z,73.37
2022-12-13T23:27:06.639Z,78.47
2022-12-13T23:29:33.953Z,76.03
2022-12-13T23:32:01.225Z,77.13
2022-12-13T23:34:28.492Z,89.07
2022-12-13T23:36:55.746Z,60.87
2022-12-13T23:39:23.084Z,68.67
2022-12-13T23:41:50.328Z,75.80
2022-12-13T23:44:17.561Z,63.27
2022-12-13T23:46:49.146Z,74.00
2022-12-13T23:49:17.073Z,74.37
2022-12-13T23:51:44.959Z,70.60
2022-12-13T23:54:16.629Z,67.60
2022-12-13T23:56:44.119Z,76.40
2022-12-13T23:59:11.664Z,70.00
